createdAt,value
2022-08-28T00:00:31.430Z,21.47
2022-08-28T00:02:58.397Z,21.34
2022-08-28T00:05:27.652Z,21.22
2022-08-28T00:07:54.606Z,21.34
2022-08-28T00:10:24.124Z,21.40
2022-08-28T00:12:52.891Z,21.44
2022-08-28T00:15:24.037Z,21.41
2022-08-28T00:17:50.944Z,21.44
2022-08-28T00:20:19.989Z,21.44
2022-08-28T00:22:47.252Z,21.50
2022-08-28T00:25:15.605Z,21.51
2022-08-28T00:27:55.280Z,21.50
2022-08-28T00:30:40.424Z,21.61
2022-08-28T00:33:14.577Z,21.57
2022-08-28T00:35:42.368Z,21.59
2022-08-28T00:38:10.993Z,21.44
2022-08-28T00:40:40.218Z,21.08
2022-08-28T00:43:08.526Z,21.30
2022-08-28T00:45:39.805Z,21.37
2022-08-28T00:48:07.166Z,21.43
2022-08-28T00:51:00.643Z,21.46
2022-08-28T00:53:30.138Z,21.41
2022-08-28T00:56:04.157Z,21.36
2022-08-28T00:58:38.185Z,21.43
2022-08-28T01:01:05.406Z,21.38
2022-08-28T01:03:32.077Z,21.40
2022-08-28T01:05:58.893Z,21.37
2022-08-28T01:08:25.653Z,21.25
2022-08-28T01:11:01.223Z,21.34
2022-08-28T01:13:30.539Z,21.34
2022-08-28T01:15:58.383Z,21.36
2022-08-28T01:18:26.217Z,21.36
2022-08-28T01:21:08.352Z,21.46
2022-08-28T01:23:54.069Z,21.44
2022-08-28T01:26:22.149Z,21.41
2022-08-28T01:28:48.939Z,21.42
2022-08-28T01:31:17.076Z,21.43
2022-08-28T01:33:45.400Z,21.46
2022-08-28T01:36:13.933Z,21.48
2022-08-28T01:38:43.720Z,21.46
2022-08-28T01:41:13.938Z,21.48
2022-08-28T01:43:41.150Z,21.49
2022-08-28T01:46:10.025Z,21.45
2022-08-28T01:48:39.224Z,21.47
2022-08-28T01:51:06.816Z,21.46
2022-08-28T01:53:33.783Z,21.47
2022-08-28T01:56:04.833Z,21.48
2022-08-28T01:58:37.418Z,20.89
2022-08-28T02:01:10.036Z,21.09
2022-08-28T02:03:36.983Z,21.11
2022-08-28T02:06:03.863Z,21.30
2022-08-28T02:08:30.516Z,21.26
2022-08-28T02:10:57.481Z,21.21
2022-08-28T02:13:25.716Z,21.15
2022-08-28T02:15:52.699Z,21.19
2022-08-28T02:18:20.285Z,21.32
2022-08-28T02:20:46.972Z,21.24
2022-08-28T02:23:13.895Z,21.36
2022-08-28T02:25:40.724Z,21.31
2022-08-28T02:28:07.736Z,21.29
2022-08-28T02:30:35.499Z,21.37
2022-08-28T02:33:02.644Z,21.38
2022-08-28T02:35:31.361Z,21.24
2022-08-28T02:37:58.538Z,21.31
2022-08-28T02:40:27.926Z,21.41
2022-08-28T02:42:54.675Z,21.39
2022-08-28T02:45:21.391Z,21.35
2022-08-28T02:47:51.170Z,21.38
2022-08-28T02:50:19.780Z,21.26
2022-08-28T02:52:46.753Z,21.27
2022-08-28T02:55:17.416Z,21.36
2022-08-28T02:57:44.584Z,21.43
2022-08-28T03:00:15.782Z,21.46
2022-08-28T03:02:44.287Z,21.52
2022-08-28T03:05:13.384Z,21.43
2022-08-28T03:07:40.105Z,21.40
2022-08-28T03:10:07.668Z,21.44
2022-08-28T03:12:34.755Z,21.10
2022-08-28T03:15:01.741Z,21.26
2022-08-28T03:17:28.724Z,21.11
2022-08-28T03:19:55.411Z,20.95
2022-08-28T03:22:41.997Z,21.03
2022-08-28T03:25:09.442Z,21.29
2022-08-28T03:27:36.248Z,21.26
2022-08-28T03:30:04.889Z,21.30
2022-08-28T03:32:31.861Z,21.36
2022-08-28T03:34:58.676Z,21.42
2022-08-28T03:37:25.374Z,21.43
2022-08-28T03:39:52.221Z,21.45
2022-08-28T03:42:18.968Z,21.42
2022-08-28T03:44:45.660Z,21.45
2022-08-28T03:47:12.857Z,21.30
2022-08-28T03:49:39.913Z,21.19
2022-08-28T03:52:06.705Z,21.37
2022-08-28T03:54:33.596Z,21.40
2022-08-28T03:57:00.508Z,21.44
2022-08-28T03:59:29.804Z,21.30
2022-08-28T04:02:00.299Z,21.32
2022-08-28T04:04:26.989Z,21.25
2022-08-28T04:06:53.677Z,21.11
2022-08-28T04:09:20.332Z,21.09
2022-08-28T04:11:46.993Z,21.01
2022-08-28T04:14:13.706Z,20.80
2022-08-28T04:16:41.194Z,20.95
2022-08-28T04:19:07.885Z,20.96
2022-08-28T04:21:34.557Z,21.10
2022-08-28T04:24:01.265Z,21.17
2022-08-28T04:26:27.953Z,21.13
2022-08-28T04:28:56.030Z,21.14
2022-08-28T04:31:32.352Z,21.14
2022-08-28T04:34:05.057Z,21.07
2022-08-28T04:36:33.738Z,21.09
2022-08-28T04:39:00.812Z,21.05
2022-08-28T04:41:28.868Z,21.12
2022-08-28T04:43:57.518Z,21.02
2022-08-28T04:46:24.882Z,20.70
2022-08-28T04:48:52.230Z,20.66
2022-08-28T04:51:20.651Z,20.57
2022-08-28T04:53:47.391Z,20.62
2022-08-28T04:56:15.469Z,20.50
2022-08-28T04:58:44.149Z,20.63
2022-08-28T05:01:18.902Z,20.63
2022-08-28T05:03:54.831Z,20.52
2022-08-28T05:06:22.911Z,20.16
2022-08-28T05:08:49.635Z,20.13
2022-08-28T05:11:22.077Z,19.88
2022-08-28T05:14:01.001Z,19.87
2022-08-28T05:16:27.687Z,19.61
2022-08-28T05:18:54.419Z,19.23
2022-08-28T05:21:22.935Z,18.95
2022-08-28T05:23:53.512Z,19.12
2022-08-28T05:26:20.578Z,19.16
2022-08-28T05:28:48.499Z,19.04
2022-08-28T05:31:21.069Z,18.67
2022-08-28T05:33:49.318Z,18.28
2022-08-28T05:36:19.655Z,18.00
2022-08-28T05:38:46.745Z,17.94
2022-08-28T05:41:20.797Z,17.65
2022-08-28T05:43:48.185Z,17.63
2022-08-28T05:46:16.312Z,17.64
2022-08-28T05:48:45.319Z,17.63
2022-08-28T05:51:14.652Z,17.59
2022-08-28T05:53:43.781Z,17.57
2022-08-28T05:56:12.484Z,17.52
2022-08-28T05:58:40.473Z,17.64
2022-08-28T06:01:12.901Z,17.68
2022-08-28T06:03:41.542Z,17.72
2022-08-28T06:06:09.715Z,17.79
2022-08-28T06:08:36.593Z,17.82
2022-08-28T06:11:04.077Z,17.87
2022-08-28T06:13:32.034Z,17.99
2022-08-28T06:15:58.776Z,17.83
2022-08-28T06:18:26.164Z,17.90
2022-08-28T06:20:53.708Z,18.18
2022-08-28T06:23:24.099Z,18.16
2022-08-28T06:25:52.000Z,18.40
2022-08-28T06:28:21.645Z,18.72
2022-08-28T06:31:15.922Z,18.98
2022-08-28T06:33:36.266Z,18.95
2022-08-28T06:36:05.062Z,19.04
2022-08-28T06:38:31.845Z,19.09
2022-08-28T06:40:59.110Z,19.16
2022-08-28T06:43:28.681Z,19.47
2022-08-28T06:45:57.778Z,19.40
2022-08-28T06:48:27.922Z,19.67
2022-08-28T06:50:57.027Z,19.92
2022-08-28T06:53:28.798Z,20.09
2022-08-28T06:56:00.141Z,20.16
2022-08-28T06:58:30.431Z,20.24
2022-08-28T07:01:07.265Z,20.43
2022-08-28T07:03:35.136Z,20.49
2022-08-28T07:06:04.357Z,20.47
2022-08-28T07:08:32.268Z,20.30
2022-08-28T07:11:00.328Z,20.23
2022-08-28T07:13:29.177Z,19.86
2022-08-28T07:15:59.624Z,19.84
2022-08-28T07:18:26.298Z,19.51
2022-08-28T07:21:03.519Z,19.17
2022-08-28T07:23:32.108Z,19.13
2022-08-28T07:25:58.912Z,19.09
2022-08-28T07:28:25.698Z,19.25
2022-08-28T07:30:58.904Z,19.12
2022-08-28T07:33:27.761Z,19.05
2022-08-28T07:35:54.961Z,19.09
2022-08-28T07:38:21.620Z,19.13
2022-08-28T07:40:48.639Z,18.91
2022-08-28T07:43:34.330Z,18.94
2022-08-28T07:46:03.629Z,18.94
2022-08-28T07:48:30.334Z,19.25
2022-08-28T07:50:57.026Z,19.50
2022-08-28T07:53:24.203Z,19.65
2022-08-28T07:55:51.509Z,19.36
2022-08-28T07:58:20.421Z,19.14
2022-08-28T08:00:47.662Z,18.70
2022-08-28T08:03:15.062Z,18.59
2022-08-28T08:05:41.805Z,18.46
2022-08-28T08:08:08.584Z,18.29
2022-08-28T08:10:35.314Z,18.30
2022-08-28T08:13:02.261Z,18.67
2022-08-28T08:15:31.359Z,18.55
2022-08-28T08:17:58.188Z,18.89
2022-08-28T08:20:24.854Z,19.23
2022-08-28T08:22:52.045Z,19.44
2022-08-28T08:25:18.690Z,19.49
2022-08-28T08:27:46.941Z,19.59
2022-08-28T08:30:13.793Z,19.34
2022-08-28T08:32:40.492Z,19.25
2022-08-28T08:35:07.458Z,18.98
2022-08-28T08:37:34.848Z,18.91
2022-08-28T08:40:01.626Z,18.99
2022-08-28T08:42:31.876Z,19.17
2022-08-28T08:45:01.068Z,19.29
2022-08-28T08:47:41.376Z,19.64
2022-08-28T08:50:22.697Z,19.88
2022-08-28T08:53:20.245Z,19.82
2022-08-28T08:55:52.922Z,19.78
2022-08-28T08:58:41.194Z,19.83
2022-08-28T09:01:17.812Z,19.99
2022-08-28T09:03:49.522Z,19.57
2022-08-28T09:06:30.804Z,19.52
2022-08-28T09:09:02.277Z,19.36
2022-08-28T09:11:28.860Z,19.39
2022-08-28T09:14:02.158Z,19.28
2022-08-28T09:16:35.457Z,19.31
2022-08-28T09:19:03.418Z,19.28
2022-08-28T09:21:37.936Z,19.19
2022-08-28T09:24:11.174Z,18.98
2022-08-28T09:26:39.828Z,18.92
2022-08-28T09:29:14.710Z,18.78
2022-08-28T09:31:41.981Z,18.83
2022-08-28T09:34:26.565Z,19.09
2022-08-28T09:36:55.484Z,18.80
2022-08-28T09:39:25.029Z,18.75
2022-08-28T09:42:14.941Z,18.89
2022-08-28T09:44:50.873Z,18.92
2022-08-28T09:47:46.120Z,19.03
2022-08-28T09:50:28.853Z,18.98
2022-08-28T09:53:16.593Z,19.07
2022-08-28T09:55:52.094Z,18.99
2022-08-28T09:58:20.861Z,18.96
2022-08-28T10:00:55.372Z,18.87
2022-08-28T10:03:29.832Z,18.96
2022-08-28T10:06:05.032Z,19.04
2022-08-28T10:08:44.053Z,19.17
2022-08-28T10:11:30.994Z,19.29
2022-08-28T10:14:10.313Z,19.32
2022-08-28T10:17:10.874Z,19.22
2022-08-28T10:20:24.978Z,19.59
2022-08-28T10:23:06.068Z,19.61
2022-08-28T10:25:55.702Z,19.72
2022-08-28T10:28:25.231Z,19.82
2022-08-28T10:31:10.348Z,20.11
2022-08-28T10:34:02.910Z,20.19
2022-08-28T10:36:33.651Z,20.13
2022-08-28T10:39:36.583Z,20.03
2022-08-28T10:42:06.401Z,19.97
2022-08-28T10:44:49.733Z,20.13
2022-08-28T10:47:21.733Z,20.17
2022-08-28T10:49:53.422Z,20.31
2022-08-28T10:52:46.614Z,20.30
2022-08-28T10:55:34.552Z,20.21
2022-08-28T10:58:24.024Z,20.27
2022-08-28T11:01:01.251Z,20.24
2022-08-28T11:03:34.874Z,20.05
2022-08-28T11:06:30.059Z,20.14
2022-08-28T11:08:59.668Z,20.26
2022-08-28T11:11:48.733Z,20.40
2022-08-28T11:14:32.160Z,20.39
2022-08-28T11:17:04.494Z,20.38
2022-08-28T11:19:48.036Z,20.60
2022-08-28T11:22:28.900Z,20.53
2022-08-28T11:25:32.320Z,20.51
2022-08-28T11:28:32.273Z,20.35
2022-08-28T11:30:58.940Z,20.38
2022-08-28T11:33:39.838Z,20.33
2022-08-28T11:36:29.917Z,20.48
2022-08-28T11:38:57.547Z,20.85
2022-08-28T11:41:27.281Z,21.11
2022-08-28T11:44:09.230Z,21.46
2022-08-28T11:46:37.668Z,21.73
2022-08-28T11:49:29.275Z,21.83
2022-08-28T11:52:05.022Z,21.84
2022-08-28T11:54:39.462Z,21.88
2022-08-28T11:57:14.877Z,22.00
2022-08-28T12:00:21.958Z,22.15
2022-08-28T12:03:11.238Z,22.16
2022-08-28T12:05:45.219Z,22.37
2022-08-28T12:08:13.854Z,22.43
2022-08-28T12:10:55.526Z,22.51
2022-08-28T12:13:46.085Z,22.72
2022-08-28T12:16:13.445Z,22.68
2022-08-28T12:18:43.078Z,22.79
2022-08-28T12:21:17.901Z,22.78
2022-08-28T12:23:59.038Z,22.72
2022-08-28T12:26:30.024Z,22.86
2022-08-28T12:29:04.535Z,22.94
2022-08-28T12:31:49.490Z,23.08
2022-08-28T12:34:24.379Z,23.22
2022-08-28T12:37:00.462Z,23.33
2022-08-28T12:39:29.184Z,23.48
2022-08-28T12:41:55.920Z,23.66
2022-08-28T12:44:25.774Z,23.72
2022-08-28T12:46:53.078Z,23.80
2022-08-28T12:49:30.451Z,23.92
2022-08-28T12:52:22.021Z,23.84
2022-08-28T12:54:51.145Z,23.88
2022-08-28T12:57:21.509Z,24.04
2022-08-28T12:59:50.783Z,24.13
2022-08-28T13:02:31.829Z,23.82
2022-08-28T13:05:08.374Z,23.39
2022-08-28T13:07:46.254Z,22.90
2022-08-28T13:10:21.076Z,23.07
2022-08-28T13:12:59.826Z,22.71
2022-08-28T13:16:02.030Z,21.95
2022-08-28T13:18:37.881Z,21.83
2022-08-28T13:21:51.984Z,21.58
2022-08-28T13:24:24.134Z,21.32
2022-08-28T13:27:00.771Z,21.36
2022-08-28T13:29:27.756Z,21.43
2022-08-28T13:32:02.053Z,21.50
2022-08-28T13:34:37.195Z,21.79
2022-08-28T13:37:07.248Z,21.65
2022-08-28T13:39:45.845Z,21.67
2022-08-28T13:42:15.990Z,21.83
2022-08-28T13:44:56.814Z,21.90
2022-08-28T13:47:23.458Z,22.01
2022-08-28T13:49:50.124Z,22.27
2022-08-28T13:52:17.058Z,22.15
2022-08-28T13:54:45.482Z,22.20
2022-08-28T13:57:13.763Z,22.26
2022-08-28T13:59:41.849Z,22.30
2022-08-28T14:02:31.242Z,22.66
2022-08-28T14:04:58.141Z,22.83
2022-08-28T14:07:24.874Z,22.87
2022-08-28T14:09:56.110Z,22.60
2022-08-28T14:12:31.371Z,22.10
2022-08-28T14:14:59.885Z,22.11
2022-08-28T14:17:26.606Z,22.07
2022-08-28T14:19:53.330Z,22.16
2022-08-28T14:22:19.985Z,21.66
2022-08-28T14:24:46.917Z,22.34
2022-08-28T14:27:13.561Z,22.45
2022-08-28T14:29:40.216Z,22.63
2022-08-28T14:32:07.033Z,22.94
2022-08-28T14:34:34.802Z,23.00
2022-08-28T14:37:01.931Z,23.05
2022-08-28T14:39:28.973Z,23.12
2022-08-28T14:41:56.108Z,22.78
2022-08-28T14:44:24.418Z,22.89
2022-08-28T14:46:56.987Z,22.97
2022-08-28T14:49:24.820Z,22.85
2022-08-28T14:51:52.866Z,22.59
2022-08-28T14:54:21.966Z,22.77
2022-08-28T14:56:49.486Z,22.84
2022-08-28T14:59:27.520Z,22.78
2022-08-28T15:01:58.103Z,22.73
2022-08-28T15:04:26.676Z,22.67
2022-08-28T15:06:58.534Z,22.79
2022-08-28T15:09:26.088Z,22.89
2022-08-28T15:11:53.453Z,22.96
2022-08-28T15:14:20.552Z,23.02
2022-08-28T15:16:49.215Z,23.24
2022-08-28T15:19:18.067Z,23.30
2022-08-28T15:21:51.325Z,23.34
2022-08-28T15:24:20.190Z,23.36
2022-08-28T15:26:46.995Z,23.52
2022-08-28T15:29:14.061Z,23.61
2022-08-28T15:31:46.875Z,23.79
2022-08-28T15:34:20.491Z,23.91
2022-08-28T15:36:55.179Z,24.00
2022-08-28T15:39:43.846Z,23.99
2022-08-28T15:42:11.602Z,23.73
2022-08-28T15:44:38.951Z,23.79
2022-08-28T15:47:06.689Z,23.72
2022-08-28T15:49:43.408Z,23.69
2022-08-28T15:52:15.717Z,23.59
2022-08-28T15:54:42.922Z,23.53
2022-08-28T15:57:10.160Z,23.58
2022-08-28T15:59:44.126Z,23.58
2022-08-28T16:02:16.095Z,23.84
2022-08-28T16:04:42.757Z,23.82
2022-08-28T16:07:09.540Z,23.78
2022-08-28T16:09:36.183Z,23.79
2022-08-28T16:12:03.037Z,23.82
2022-08-28T16:14:32.819Z,23.61
2022-08-28T16:16:59.806Z,23.60
2022-08-28T16:19:32.850Z,23.61
2022-08-28T16:22:00.371Z,23.66
2022-08-28T16:24:27.153Z,23.71
2022-08-28T16:26:53.826Z,23.78
2022-08-28T16:29:20.462Z,23.51
2022-08-28T16:31:48.904Z,23.56
2022-08-28T16:34:15.984Z,23.45
2022-08-28T16:36:48.373Z,23.36
2022-08-28T16:39:15.351Z,23.31
2022-08-28T16:41:43.251Z,23.33
2022-08-28T16:44:09.995Z,23.15
2022-08-28T16:46:36.707Z,23.05
2022-08-28T16:49:03.627Z,23.07
2022-08-28T16:51:30.368Z,23.03
2022-08-28T16:53:57.484Z,23.01
2022-08-28T16:56:25.034Z,23.01
2022-08-28T16:58:53.223Z,22.84
2022-08-28T17:01:24.101Z,22.93
2022-08-28T17:03:52.730Z,22.92
2022-08-28T17:06:23.470Z,22.99
2022-08-28T17:08:55.908Z,23.07
2022-08-28T17:11:24.570Z,23.03
2022-08-28T17:13:51.350Z,23.14
2022-08-28T17:16:20.032Z,23.15
2022-08-28T17:18:51.996Z,23.16
2022-08-28T17:21:37.689Z,23.17
2022-08-28T17:24:04.480Z,23.14
2022-08-28T17:26:31.118Z,23.08
2022-08-28T17:28:57.783Z,23.06
2022-08-28T17:31:24.520Z,23.06
2022-08-28T17:33:51.665Z,23.00
2022-08-28T17:36:32.393Z,22.99
2022-08-28T17:39:02.205Z,22.93
2022-08-28T17:41:28.858Z,22.95
2022-08-28T17:43:55.638Z,23.00
2022-08-28T17:46:22.674Z,22.97
2022-08-28T17:48:55.731Z,22.96
2022-08-28T17:51:33.835Z,22.97
2022-08-28T17:54:15.630Z,22.95
2022-08-28T17:56:42.652Z,22.88
2022-08-28T17:59:10.212Z,22.68
2022-08-28T18:01:38.549Z,22.73
2022-08-28T18:04:05.835Z,22.69
2022-08-28T18:06:32.758Z,22.73
2022-08-28T18:08:59.466Z,22.72
2022-08-28T18:11:26.342Z,22.73
2022-08-28T18:13:53.049Z,22.67
2022-08-28T18:16:19.955Z,22.65
2022-08-28T18:18:46.673Z,22.64
2022-08-28T18:21:14.463Z,22.61
2022-08-28T18:23:41.142Z,22.58
2022-08-28T18:26:08.875Z,22.54
2022-08-28T18:28:36.081Z,22.44
2022-08-28T18:31:05.832Z,22.50
2022-08-28T18:33:34.130Z,22.47
2022-08-28T18:36:01.055Z,22.45
2022-08-28T18:38:28.684Z,22.46
2022-08-28T18:40:56.349Z,22.46
2022-08-28T18:43:24.113Z,22.43
2022-08-28T18:45:51.443Z,22.36
2022-08-28T18:48:19.358Z,22.32
2022-08-28T18:50:48.334Z,22.29
2022-08-28T18:53:16.430Z,22.32
2022-08-28T18:55:43.278Z,22.27
2022-08-28T18:58:14.974Z,22.22
2022-08-28T19:00:42.917Z,22.21
2022-08-28T19:03:09.719Z,22.17
2022-08-28T19:05:37.741Z,22.14
2022-08-28T19:08:05.209Z,22.15
2022-08-28T19:10:34.435Z,22.16
2022-08-28T19:13:02.234Z,22.16
2022-08-28T19:15:29.273Z,22.08
2022-08-28T19:17:56.053Z,22.03
2022-08-28T19:20:22.953Z,22.02
2022-08-28T19:22:49.969Z,21.95
2022-08-28T19:25:27.833Z,21.97
2022-08-28T19:27:58.909Z,21.95
2022-08-28T19:30:27.365Z,21.88
2022-08-28T19:32:54.157Z,21.83
2022-08-28T19:35:24.136Z,21.86
2022-08-28T19:37:54.330Z,21.85
2022-08-28T19:40:21.905Z,21.86
2022-08-28T19:42:50.148Z,21.88
2022-08-28T19:45:18.191Z,21.83
2022-08-28T19:47:45.452Z,21.67
2022-08-28T19:50:14.549Z,21.54
2022-08-28T19:52:43.500Z,21.41
2022-08-28T19:55:25.825Z,21.30
2022-08-28T19:57:53.064Z,21.14
2022-08-28T20:00:24.030Z,21.35
2022-08-28T20:02:52.509Z,21.12
2022-08-28T20:05:20.736Z,21.28
2022-08-28T20:07:47.710Z,21.38
2022-08-28T20:10:15.454Z,21.45
2022-08-28T20:12:48.319Z,21.47
2022-08-28T20:15:18.459Z,21.43
2022-08-28T20:17:49.553Z,21.46
2022-08-28T20:20:20.750Z,21.49
2022-08-28T20:22:48.946Z,21.49
2022-08-28T20:25:21.053Z,21.53
2022-08-28T20:27:47.716Z,21.48
2022-08-28T20:30:14.447Z,21.48
2022-08-28T20:32:41.773Z,21.38
2022-08-28T20:35:11.057Z,20.86
2022-08-28T20:37:45.466Z,21.03
2022-08-28T20:40:16.008Z,21.26
2022-08-28T20:42:43.328Z,21.31
2022-08-28T20:45:10.812Z,21.07
2022-08-28T20:47:37.525Z,20.91
2022-08-28T20:50:04.562Z,20.83
2022-08-28T20:52:31.265Z,20.76
2022-08-28T20:54:58.231Z,20.92
2022-08-28T20:57:25.138Z,20.99
2022-08-28T20:59:54.111Z,21.06
2022-08-28T21:02:24.034Z,20.95
2022-08-28T21:04:52.103Z,20.95
2022-08-28T21:07:20.886Z,21.06
2022-08-28T21:10:04.183Z,20.82
2022-08-28T21:12:35.669Z,20.79
2022-08-28T21:15:02.721Z,20.93
2022-08-28T21:17:30.693Z,20.94
2022-08-28T21:20:00.694Z,20.87
2022-08-28T21:22:29.048Z,20.90
2022-08-28T21:24:55.718Z,20.88
2022-08-28T21:27:22.385Z,20.89
2022-08-28T21:29:49.010Z,20.90
2022-08-28T21:32:16.784Z,20.89
2022-08-28T21:34:43.583Z,20.93
2022-08-28T21:37:10.307Z,20.90
2022-08-28T21:39:37.008Z,20.85
2022-08-28T21:42:03.862Z,20.85
2022-08-28T21:44:30.506Z,20.90
2022-08-28T21:47:00.552Z,20.91
2022-08-28T21:49:27.322Z,20.87
2022-08-28T21:51:53.957Z,20.84
2022-08-28T21:54:20.846Z,20.82
2022-08-28T21:56:48.299Z,20.79
2022-08-28T21:59:22.981Z,20.80
2022-08-28T22:01:51.706Z,20.73
2022-08-28T22:04:18.356Z,20.64
2022-08-28T22:06:45.204Z,20.53
2022-08-28T22:09:11.929Z,20.56
2022-08-28T22:11:38.625Z,20.56
2022-08-28T22:14:05.281Z,20.55
2022-08-28T22:16:32.110Z,20.47
2022-08-28T22:18:59.025Z,20.32
2022-08-28T22:21:45.652Z,20.38
2022-08-28T22:24:13.539Z,20.15
2022-08-28T22:26:41.243Z,20.02
2022-08-28T22:29:08.327Z,19.75
2022-08-28T22:31:35.367Z,19.81
2022-08-28T22:34:06.029Z,20.02
2022-08-28T22:36:33.159Z,20.09
2022-08-28T22:38:59.832Z,20.11
2022-08-28T22:41:26.481Z,20.16
2022-08-28T22:43:53.725Z,20.09
2022-08-28T22:46:21.344Z,19.95
2022-08-28T22:48:48.086Z,19.73
2022-08-28T22:51:18.630Z,19.80
2022-08-28T22:53:46.820Z,19.80
2022-08-28T22:56:14.831Z,19.96
2022-08-28T22:58:41.601Z,20.05
2022-08-28T23:01:16.005Z,20.07
2022-08-28T23:03:42.869Z,19.94
2022-08-28T23:06:09.635Z,19.99
2022-08-28T23:08:36.530Z,19.96
2022-08-28T23:11:03.786Z,20.05
2022-08-28T23:13:31.620Z,19.86
2022-08-28T23:15:59.612Z,19.85
2022-08-28T23:18:26.639Z,19.90
2022-08-28T23:20:55.314Z,19.91
2022-08-28T23:23:23.071Z,19.94
2022-08-28T23:25:53.033Z,19.96
2022-08-28T23:28:20.290Z,20.00
2022-08-28T23:30:48.585Z,20.02
2022-08-28T23:33:23.890Z,20.03
2022-08-28T23:35:51.411Z,20.06
2022-08-28T23:38:18.316Z,20.06
2022-08-28T23:40:46.158Z,19.98
2022-08-28T23:43:12.806Z,19.97
2022-08-28T23:45:41.787Z,19.99
2022-08-28T23:48:09.060Z,19.99
2022-08-28T23:50:36.152Z,19.92
2022-08-28T23:53:04.721Z,19.94
2022-08-28T23:55:33.435Z,19.91
2022-08-28T23:58:00.374Z,19.77
